Endeavor — PHCH — position and weather

sailwx.info

Track history (hours):
 
Tides and Currents Weather Stations Pressure Air Temp Water Temp Dewpoint Dewpoint Depression Visibility Wind Speed Wind Dir Waves Ship Positions

Endeavor

Last reported at 2018-Jun-22 13:05 UTC. Time now 2018-Jun-22 13:31 UTC.
Position N 55°57' W 004°46'.

Length 136 m; draft 6.7 m.

Type: Ship (hazmat cat A). MMSI: 245222000.

Date/timePositionNaut miles runAvg speedWind from/ knotsBaromVisibWave heightAir tempDewpointWater temp
2018-Jun-22 13:05N 55°57' W 004°46'0 0.1
2018-Jun-22 12:59N 55°57' W 004°46'0 0.0
2018-Jun-22 12:26N 55°57' W 004°46'0 0.0
2018-Jun-22 10:53N 55°57' W 004°46'0 0.0
2018-Jun-22 10:29N 55°57' W 004°46'0 0.0
2018-Jun-22 09:53N 55°57' W 004°46'0 0.0
2018-Jun-22 09:29N 55°57' W 004°46'0 0.0
2018-Jun-22 08:59N 55°57' W 004°46'0 0.0
2018-Jun-22 08:29N 55°57' W 004°46'0 0.2
2018-Jun-22 08:00N 55°57' W 004°46'4 8.9
2018-Jun-22 07:30N 55°57' W 004°53'815.8
2018-Jun-22 07:00N 55°49' W 004°57'714.8
2018-Jun-22 06:30N 55°42' W 004°59'5415.1
2018-Jun-22 02:54N 54°48' W 005°13'1014.4
2018-Jun-22 02:11N 54°38' W 005°08'416.2
2018-Jun-22 01:57N 54°34' W 005°07'614.3
2018-Jun-22 01:30N 54°28' W 005°04'815.2
2018-Jun-22 00:57N 54°20' W 005°01'5814.8
2018-Jun-21 21:01N 53°37' W 003°53'015.9
2018-Jun-21 21:00N 53°37' W 003°53'815.8
2018-Jun-21 20:30N 53°34' W 003°41'816.0
2018-Jun-21 20:00N 53°33' W 003°27'612.2
2018-Jun-21 19:30N 53°32' W 003°17'2 3.6
2018-Jun-21 19:00N 53°31' W 003°15'5 9.0
2018-Jun-21 18:30N 53°31' W 003°07'611.6
2018-Jun-21 18:00N 53°27' W 003°01'0 0.6
2018-Jun-21 17:31N 53°27' W 003°01'1 1.1
2018-Jun-21 16:59N 53°28' W 003°02'0 0.0
2018-Jun-21 16:26N 53°28' W 003°02'0 0.0
2018-Jun-21 15:59N 53°28' W 003°02'0 0.0
2018-Jun-21 15:29N 53°28' W 003°02'0 0.0
2018-Jun-21 14:59N 53°28' W 003°02'0 0.0
2018-Jun-21 14:29N 53°28' W 003°02'0 0.0
2018-Jun-21 13:59N 53°28' W 003°02'0 0.0
2018-Jun-21 13:29N 53°28' W 003°02'0 0.0
2018-Jun-21 12:59N 53°28' W 003°02'0 0.0
2018-Jun-21 12:29N 53°28' W 003°02'0 0.0
2018-Jun-21 11:59N 53°28' W 003°02'0 0.0
2018-Jun-21 11:29N 53°28' W 003°02'0 0.0
2018-Jun-21 10:59N 53°28' W 003°02'0 0.0
2018-Jun-21 10:29N 53°28' W 003°02'0 0.0
2018-Jun-21 09:59N 53°28' W 003°02'0 0.0
2018-Jun-21 09:29N 53°28' W 003°02'0 0.0
2018-Jun-21 08:47N 53°28' W 003°02'0 0.0
2018-Jun-21 08:26N 53°28' W 003°02'0 0.0
2018-Jun-21 07:59N 53°28' W 003°02'0 0.0
2018-Jun-21 07:29N 53°28' W 003°02'0 0.0
2018-Jun-21 06:56N 53°28' W 003°02'0 0.0
2018-Jun-21 06:29N 53°28' W 003°02'0 0.0
2018-Jun-21 05:59N 53°28' W 003°02'0 0.0
2018-Jun-21 05:29N 53°28' W 003°02'0 0.0
2018-Jun-21 04:58N 53°28' W 003°02'0 0.0
2018-Jun-21 04:25N 53°28' W 003°02'0 0.0
2018-Jun-21 03:58N 53°28' W 003°02'0 0.0
2018-Jun-21 03:25N 53°28' W 003°02'0 0.0
2018-Jun-21 02:58N 53°28' W 003°02'0 0.0
2018-Jun-21 02:28N 53°28' W 003°02'0 0.0
2018-Jun-21 01:58N 53°28' W 003°02'0 0.0
2018-Jun-21 01:30N 53°28' W 003°02'1 1.2
2018-Jun-21 01:00N 53°27' W 003°01'0 0.2
2018-Jun-21 00:30N 53°27' W 003°01'0 0.4
2018-Jun-20 23:59N 53°27' W 003°01'1 2.6
2018-Jun-20 23:28N 53°28' W 003°03'5 9.7
2018-Jun-20 23:00N 53°31' W 003°07'510.3
2018-Jun-20 22:30N 53°31' W 003°16'510.5
2018-Jun-20 22:00N 53°31' W 003°25'510.9
2018-Jun-20 21:30N 53°31' W 003°34'510.1
2018-Jun-20 21:00N 53°31' W 003°43'510.0
2018-Jun-20 20:30N 53°31' W 003°51'5 9.9
2018-Jun-20 19:59N 53°31' W 003°60'13611.4
2018-Jun-20 08:05N 51°32' W 005°51'214.3
2018-Jun-20 07:54N 51°30' W 005°51'6414.9
2018-Jun-20 03:37N 50°26' W 005°54'515.1
2018-Jun-20 03:16N 50°21' W 005°54'15415.2
2018-Jun-19 17:06N 47°47' W 005°33'215.8
2018-Jun-19 16:57N 47°45' W 005°31'815.9
2018-Jun-19 16:29N 47°38' W 005°27'815.5
2018-Jun-19 15:57N 47°30' W 005°23'3215.4
2018-Jun-19 13:53N 47°00' W 005°06'715.8
2018-Jun-19 13:28N 46°54' W 005°02'915.7
2018-Jun-19 12:53N 46°45' W 004°58'615.3
2018-Jun-19 12:28N 46°40' W 004°54'715.7
2018-Jun-19 12:01N 46°33' W 004°50'1115.6
2018-Jun-19 11:19N 46°23' W 004°44'715.4
2018-Jun-19 10:51N 46°16' W 004°40'11115.4
2018-Jun-19 03:39N 44°33' W 003°43'4815.4
2018-Jun-19 00:32N 43°48' W 003°19'415.8
2018-Jun-19 00:19N 43°45' W 003°17'515.8
2018-Jun-19 00:00N 43°40' W 003°15'815.8
2018-Jun-18 23:30N 43°33' W 003°11'815.9
2018-Jun-18 23:01N 43°25' W 003°06'510.0
2018-Jun-18 22:30N 43°21' W 003°03'0 0.6
2018-Jun-18 21:55N 43°21' W 003°03'0 0.0
2018-Jun-18 21:28N 43°21' W 003°03'0 0.0
2018-Jun-18 20:01N 43°21' W 003°03'0 0.0
2018-Jun-18 19:31N 43°21' W 003°03'0 0.0
2018-Jun-18 19:00N 43°21' W 003°03'0 0.0
2018-Jun-18 18:30N 43°21' W 003°03'0 0.0
2018-Jun-18 17:54N 43°21' W 003°03'0 0.0
2018-Jun-18 17:30N 43°21' W 003°03'0 0.0
2018-Jun-18 16:57N 43°21' W 003°03'0 0.0
2018-Jun-18 16:27N 43°21' W 003°03'0 0.0
2018-Jun-18 16:00N 43°21' W 003°03'0 0.0
2018-Jun-18 15:27N 43°21' W 003°03'0 0.0
2018-Jun-18 15:00N 43°21' W 003°03'0 0.0
2018-Jun-18 14:30N 43°21' W 003°03'0 0.0
2018-Jun-18 14:00N 43°21' W 003°03'0 0.0
2018-Jun-18 13:27N 43°21' W 003°03'0 0.0
2018-Jun-18 12:57N 43°21' W 003°03'0 0.0
2018-Jun-18 12:27N 43°21' W 003°03'0 0.0
2018-Jun-18 12:00N 43°21' W 003°03'0 0.0
2018-Jun-18 11:24N 43°21' W 003°03'0 0.0
2018-Jun-18 11:00N 43°21' W 003°03'0 0.0
2018-Jun-18 10:27N 43°21' W 003°03'0 0.0
2018-Jun-18 10:00N 43°21' W 003°03'0 0.0
2018-Jun-18 09:30N 43°21' W 003°03'0 0.0
2018-Jun-18 09:00N 43°21' W 003°03'0 0.0
2018-Jun-18 08:24N 43°21' W 003°03'0 0.0
2018-Jun-18 08:00N 43°21' W 003°03'0 0.0
2018-Jun-18 07:30N 43°21' W 003°03'0 0.0
2018-Jun-18 06:54N 43°21' W 003°03'0 0.0
2018-Jun-18 06:15N 43°21' W 003°03'0 0.0
2018-Jun-18 06:00N 43°21' W 003°03'0 0.0
2018-Jun-18 05:30N 43°21' W 003°03'2 4.0
2018-Jun-18 05:00N 43°22' W 003°04'612.2
2018-Jun-18 04:29N 43°28' W 003°08'613.2
2018-Jun-18 04:00N 43°34' W 003°11'713.2
2018-Jun-18 03:30N 43°40' W 003°14'713.1
2018-Jun-18 03:00N 43°46' W 003°18'913.1
2018-Jun-18 02:20N 43°55' W 003°22'30114.7
2018-Jun-17 05:52N 48°35' W 006°01'3113.8
2018-Jun-17 03:36N 49°06' W 006°04'414.4
2018-Jun-17 03:21N 49°10' W 006°04'21715.8
2018-Jun-16 13:39N 52°46' W 005°38'317.1
2018-Jun-16 13:29N 52°49' W 005°37'816.5
2018-Jun-16 12:59N 52°57' W 005°35'1115.7
2018-Jun-16 12:15N 53°08' W 005°32'514.9
2018-Jun-16 11:56N 53°13' W 005°32'5214.1
2018-Jun-16 08:17N 54°04' W 005°23'715.0
2018-Jun-16 07:50N 54°11' W 005°21'515.2
2018-Jun-16 07:30N 54°16' W 005°21'815.6
2018-Jun-16 07:00N 54°24' W 005°19'815.3
2018-Jun-16 06:30N 54°31' W 005°18'714.7
2018-Jun-16 06:01N 54°39' W 005°18'714.3
2018-Jun-16 05:31N 54°46' W 005°18'713.7
2018-Jun-16 05:00N 54°53' W 005°18'813.6
2018-Jun-16 04:27N 55°00' W 005°16'4415.5
2018-Jun-16 01:35N 55°44' W 004°59'115.2
2018-Jun-16 01:30N 55°45' W 004°59'713.6
2018-Jun-16 01:00N 55°51' W 004°57'713.9
2018-Jun-16 00:30N 55°58' W 004°52'3 0.5
2018-Jun-15 17:31N 55°57' W 004°46'0 0.0
2018-Jun-15 17:01N 55°57' W 004°46'0 0.2
2018-Jun-15 16:58N 55°57' W 004°46'0 0.0
2018-Jun-15 16:28N 55°57' W 004°46'0 0.0
2018-Jun-15 15:58N 55°57' W 004°46'0 0.0
2018-Jun-15 15:28N 55°57' W 004°46'0 0.0
2018-Jun-15 14:55N 55°57' W 004°46'0 0.0
2018-Jun-15 14:25N 55°57' W 004°46'0 0.0
2018-Jun-15 13:58N 55°57' W 004°46'0 0.0
2018-Jun-15 13:28N 55°57' W 004°46'0 0.0
2018-Jun-15 12:55N 55°57' W 004°46'0 0.0
2018-Jun-15 12:25N 55°57' W 004°46'2 0.5
2018-Jun-15 09:08N 55°58' W 004°48'111.6
2018-Jun-15 09:00N 55°58' W 004°51'714.6
2018-Jun-15 08:30N 55°51' W 004°56'715.0
2018-Jun-15 08:00N 55°44' W 004°59'5214.5
2018-Jun-15 04:26N 54°53' W 005°16'818.7
2018-Jun-15 04:00N 54°45' W 005°12'918.8
2018-Jun-15 03:30N 54°36' W 005°08'917.5
2018-Jun-15 03:01N 54°28' W 005°04'1017.2
2018-Jun-15 02:27N 54°18' W 005°00'6315.5
2018-Jun-14 22:21N 53°35' W 003°42'514.6
2018-Jun-14 22:00N 53°34' W 003°34'714.7
2018-Jun-14 21:30N 53°33' W 003°22'510.8
2018-Jun-14 21:00N 53°31' W 003°13'611.2
2018-Jun-14 20:30N 53°29' W 003°05'3 5.7
2018-Jun-14 20:00N 53°27' W 003°01'0 0.0
2018-Jun-14 19:30N 53°27' W 003°01'1 1.2
2018-Jun-14 19:00N 53°28' W 003°02'0 0.0
2018-Jun-14 18:27N 53°28' W 003°02'0 0.0
2018-Jun-14 18:00N 53°28' W 003°02'0 0.0
2018-Jun-14 17:27N 53°28' W 003°02'0 0.0
2018-Jun-14 17:00N 53°28' W 003°02'0 0.0
2018-Jun-14 16:30N 53°28' W 003°02'0 0.0
2018-Jun-14 16:00N 53°28' W 003°02'0 0.0
2018-Jun-14 15:30N 53°28' W 003°02'0 0.0
2018-Jun-14 15:00N 53°28' W 003°02'0 0.0
2018-Jun-14 14:27N 53°28' W 003°02'0 0.0
2018-Jun-14 13:57N 53°28' W 003°02'0 0.0
2018-Jun-14 13:30N 53°28' W 003°02'0 0.0
2018-Jun-14 13:00N 53°28' W 003°02'0 0.0
2018-Jun-14 12:30N 53°28' W 003°02'0 0.0
2018-Jun-14 11:57N 53°28' W 003°02'0 0.0
2018-Jun-14 11:30N 53°28' W 003°02'0 0.0
2018-Jun-14 11:00N 53°28' W 003°02'0 0.0
2018-Jun-14 10:30N 53°28' W 003°02'0 0.0
2018-Jun-14 09:57N 53°28' W 003°02'0 0.0
2018-Jun-14 09:30N 53°28' W 003°02'0 0.0
2018-Jun-14 09:00N 53°28' W 003°02'0 0.0
2018-Jun-14 08:30N 53°28' W 003°02'0 0.0
2018-Jun-14 08:00N 53°28' W 003°02'0 0.0
2018-Jun-14 07:30N 53°28' W 003°02'0 0.0
2018-Jun-14 07:00N 53°28' W 003°02'0 0.0
2018-Jun-14 06:30N 53°28' W 003°02'0 0.0
2018-Jun-14 06:00N 53°28' W 003°02'0 0.0
2018-Jun-14 05:29N 53°28' W 003°02'0 0.0
2018-Jun-14 04:59N 53°28' W 003°02'0 0.0
2018-Jun-14 04:29N 53°28' W 003°02'0 0.0
2018-Jun-14 03:59N 53°28' W 003°02'0 0.0
2018-Jun-14 03:29N 53°28' W 003°02'0 0.0
2018-Jun-14 02:59N 53°28' W 003°02'0 0.0
2018-Jun-14 02:29N 53°28' W 003°02'0 0.0
2018-Jun-14 01:59N 53°28' W 003°02'0 0.0
2018-Jun-14 01:29N 53°28' W 003°02'0 0.0
2018-Jun-14 00:59N 53°28' W 003°02'0 0.4
2018-Jun-14 00:30N 53°28' W 003°01'0 0.9
2018-Jun-14 00:00N 53°27' W 003°01'1 2.9
2018-Jun-13 23:30N 53°28' W 003°03'611.2
2018-Jun-13 23:00N 53°32' W 003°10'612.8
2018-Jun-13 22:30N 53°31' W 003°20'1 1.1
2018-Jun-13 22:00N 53°32' W 003°20'4 7.5
2018-Jun-13 21:30N 53°31' W 003°26'510.9
2018-Jun-13 21:01N 53°31' W 003°35'612.4
2018-Jun-13 20:30N 53°30' W 003°46'713.9
2018-Jun-13 20:00N 53°29' W 003°57'3 4.8
2018-Jun-13 19:18N 53°31' W 003°52'7213.6
2018-Jun-13 14:02N 52°39' W 005°15'114.3
2018-Jun-13 13:57N 52°38' W 005°16'7215.4
2018-Jun-13 09:15N 51°30' W 005°52'3016.9
2018-Jun-13 07:28N 50°59' W 005°53'816.8
2018-Jun-13 07:00N 50°52' W 005°53'1116.7
2018-Jun-13 06:21N 50°40' W 005°53'616.6
2018-Jun-13 05:58N 50°34' W 005°53'716.4
2018-Jun-13 05:30N 50°27' W 005°53'816.6
2018-Jun-13 05:00N 50°18' W 005°54'  
Track history (hours):
 
Tides and Currents Weather Stations Pressure Air Temp Water Temp Dewpoint Dewpoint Depression Visibility Wind Speed Wind Dir Waves Ship Positions

Endeavor

Last reported at 2018-Jun-22 13:05 UTC. Time now 2018-Jun-22 13:31 UTC.
Position N 55°57' W 004°46'.

Length 136 m; draft 6.7 m.

Type: Ship (hazmat cat A). MMSI: 245222000.

Date/timePositionNaut miles runAvg speedWind from/ knotsBaromVisibWave heightAir tempDewpointWater temp
2018-Jun-22 13:05N 55°57' W 004°46'0 0.1
2018-Jun-22 12:59N 55°57' W 004°46'0 0.0
2018-Jun-22 12:26N 55°57' W 004°46'0 0.0
2018-Jun-22 10:53N 55°57' W 004°46'0 0.0
2018-Jun-22 10:29N 55°57' W 004°46'0 0.0
2018-Jun-22 09:53N 55°57' W 004°46'0 0.0
2018-Jun-22 09:29N 55°57' W 004°46'0 0.0
2018-Jun-22 08:59N 55°57' W 004°46'0 0.0
2018-Jun-22 08:29N 55°57' W 004°46'0 0.2
2018-Jun-22 08:00N 55°57' W 004°46'4 8.9
2018-Jun-22 07:30N 55°57' W 004°53'815.8
2018-Jun-22 07:00N 55°49' W 004°57'714.8
2018-Jun-22 06:30N 55°42' W 004°59'5415.1
2018-Jun-22 02:54N 54°48' W 005°13'1014.4
2018-Jun-22 02:11N 54°38' W 005°08'416.2
2018-Jun-22 01:57N 54°34' W 005°07'614.3
2018-Jun-22 01:30N 54°28' W 005°04'815.2
2018-Jun-22 00:57N 54°20' W 005°01'5814.8
2018-Jun-21 21:01N 53°37' W 003°53'015.9
2018-Jun-21 21:00N 53°37' W 003°53'815.8
2018-Jun-21 20:30N 53°34' W 003°41'816.0
2018-Jun-21 20:00N 53°33' W 003°27'612.2
2018-Jun-21 19:30N 53°32' W 003°17'2 3.6
2018-Jun-21 19:00N 53°31' W 003°15'5 9.0
2018-Jun-21 18:30N 53°31' W 003°07'611.6
2018-Jun-21 18:00N 53°27' W 003°01'0 0.6
2018-Jun-21 17:31N 53°27' W 003°01'1 1.1
2018-Jun-21 16:59N 53°28' W 003°02'0 0.0
2018-Jun-21 16:26N 53°28' W 003°02'0 0.0
2018-Jun-21 15:59N 53°28' W 003°02'0 0.0
2018-Jun-21 15:29N 53°28' W 003°02'0 0.0
2018-Jun-21 14:59N 53°28' W 003°02'0 0.0
2018-Jun-21 14:29N 53°28' W 003°02'0 0.0
2018-Jun-21 13:59N 53°28' W 003°02'0 0.0
2018-Jun-21 13:29N 53°28' W 003°02'0 0.0
2018-Jun-21 12:59N 53°28' W 003°02'0 0.0
2018-Jun-21 12:29N 53°28' W 003°02'0 0.0
2018-Jun-21 11:59N 53°28' W 003°02'0 0.0
2018-Jun-21 11:29N 53°28' W 003°02'0 0.0
2018-Jun-21 10:59N 53°28' W 003°02'0 0.0
2018-Jun-21 10:29N 53°28' W 003°02'0 0.0
2018-Jun-21 09:59N 53°28' W 003°02'0 0.0
2018-Jun-21 09:29N 53°28' W 003°02'0 0.0
2018-Jun-21 08:47N 53°28' W 003°02'0 0.0
2018-Jun-21 08:26N 53°28' W 003°02'0 0.0
2018-Jun-21 07:59N 53°28' W 003°02'0 0.0
2018-Jun-21 07:29N 53°28' W 003°02'0 0.0
2018-Jun-21 06:56N 53°28' W 003°02'0 0.0
2018-Jun-21 06:29N 53°28' W 003°02'0 0.0
2018-Jun-21 05:59N 53°28' W 003°02'0 0.0
2018-Jun-21 05:29N 53°28' W 003°02'0 0.0
2018-Jun-21 04:58N 53°28' W 003°02'0 0.0
2018-Jun-21 04:25N 53°28' W 003°02'0 0.0
2018-Jun-21 03:58N 53°28' W 003°02'0 0.0
2018-Jun-21 03:25N 53°28' W 003°02'0 0.0
2018-Jun-21 02:58N 53°28' W 003°02'0 0.0
2018-Jun-21 02:28N 53°28' W 003°02'0 0.0
2018-Jun-21 01:58N 53°28' W 003°02'0 0.0
2018-Jun-21 01:30N 53°28' W 003°02'1 1.2
2018-Jun-21 01:00N 53°27' W 003°01'0 0.2
2018-Jun-21 00:30N 53°27' W 003°01'0 0.4
2018-Jun-20 23:59N 53°27' W 003°01'1 2.6
2018-Jun-20 23:28N 53°28' W 003°03'5 9.7
2018-Jun-20 23:00N 53°31' W 003°07'510.3
2018-Jun-20 22:30N 53°31' W 003°16'510.5
2018-Jun-20 22:00N 53°31' W 003°25'510.9
2018-Jun-20 21:30N 53°31' W 003°34'510.1
2018-Jun-20 21:00N 53°31' W 003°43'510.0
2018-Jun-20 20:30N 53°31' W 003°51'5 9.9
2018-Jun-20 19:59N 53°31' W 003°60'13611.4
2018-Jun-20 08:05N 51°32' W 005°51'214.3
2018-Jun-20 07:54N 51°30' W 005°51'6414.9
2018-Jun-20 03:37N 50°26' W 005°54'515.1
2018-Jun-20 03:16N 50°21' W 005°54'15415.2
2018-Jun-19 17:06N 47°47' W 005°33'215.8
2018-Jun-19 16:57N 47°45' W 005°31'815.9
2018-Jun-19 16:29N 47°38' W 005°27'815.5
2018-Jun-19 15:57N 47°30' W 005°23'3215.4
2018-Jun-19 13:53N 47°00' W 005°06'715.8
2018-Jun-19 13:28N 46°54' W 005°02'915.7
2018-Jun-19 12:53N 46°45' W 004°58'615.3
2018-Jun-19 12:28N 46°40' W 004°54'715.7
2018-Jun-19 12:01N 46°33' W 004°50'1115.6
2018-Jun-19 11:19N 46°23' W 004°44'715.4
2018-Jun-19 10:51N 46°16' W 004°40'11115.4
2018-Jun-19 03:39N 44°33' W 003°43'4815.4
2018-Jun-19 00:32N 43°48' W 003°19'415.8
2018-Jun-19 00:19N 43°45' W 003°17'515.8
2018-Jun-19 00:00N 43°40' W 003°15'815.8
2018-Jun-18 23:30N 43°33' W 003°11'815.9
2018-Jun-18 23:01N 43°25' W 003°06'510.0
2018-Jun-18 22:30N 43°21' W 003°03'0 0.6
2018-Jun-18 21:55N 43°21' W 003°03'0 0.0
2018-Jun-18 21:28N 43°21' W 003°03'0 0.0
2018-Jun-18 20:01N 43°21' W 003°03'0 0.0
2018-Jun-18 19:31N 43°21' W 003°03'0 0.0
2018-Jun-18 19:00N 43°21' W 003°03'0 0.0
2018-Jun-18 18:30N 43°21' W 003°03'0 0.0
2018-Jun-18 17:54N 43°21' W 003°03'0 0.0
2018-Jun-18 17:30N 43°21' W 003°03'0 0.0
2018-Jun-18 16:57N 43°21' W 003°03'0 0.0
2018-Jun-18 16:27N 43°21' W 003°03'0 0.0
2018-Jun-18 16:00N 43°21' W 003°03'0 0.0
2018-Jun-18 15:27N 43°21' W 003°03'0 0.0
2018-Jun-18 15:00N 43°21' W 003°03'0 0.0
2018-Jun-18 14:30N 43°21' W 003°03'0 0.0
2018-Jun-18 14:00N 43°21' W 003°03'0 0.0
2018-Jun-18 13:27N 43°21' W 003°03'0 0.0
2018-Jun-18 12:57N 43°21' W 003°03'0 0.0
2018-Jun-18 12:27N 43°21' W 003°03'0 0.0
2018-Jun-18 12:00N 43°21' W 003°03'0 0.0
2018-Jun-18 11:24N 43°21' W 003°03'0 0.0
2018-Jun-18 11:00N 43°21' W 003°03'0 0.0
2018-Jun-18 10:27N 43°21' W 003°03'0 0.0
2018-Jun-18 10:00N 43°21' W 003°03'0 0.0
2018-Jun-18 09:30N 43°21' W 003°03'0 0.0
2018-Jun-18 09:00N 43°21' W 003°03'0 0.0
2018-Jun-18 08:24N 43°21' W 003°03'0 0.0
2018-Jun-18 08:00N 43°21' W 003°03'0 0.0
2018-Jun-18 07:30N 43°21' W 003°03'0 0.0
2018-Jun-18 06:54N 43°21' W 003°03'0 0.0
2018-Jun-18 06:15N 43°21' W 003°03'0 0.0
2018-Jun-18 06:00N 43°21' W 003°03'0 0.0
2018-Jun-18 05:30N 43°21' W 003°03'2 4.0
2018-Jun-18 05:00N 43°22' W 003°04'612.2
2018-Jun-18 04:29N 43°28' W 003°08'613.2
2018-Jun-18 04:00N 43°34' W 003°11'713.2
2018-Jun-18 03:30N 43°40' W 003°14'713.1
2018-Jun-18 03:00N 43°46' W 003°18'913.1
2018-Jun-18 02:20N 43°55' W 003°22'30114.7
2018-Jun-17 05:52N 48°35' W 006°01'3113.8
2018-Jun-17 03:36N 49°06' W 006°04'414.4
2018-Jun-17 03:21N 49°10' W 006°04'21715.8
2018-Jun-16 13:39N 52°46' W 005°38'317.1
2018-Jun-16 13:29N 52°49' W 005°37'816.5
2018-Jun-16 12:59N 52°57' W 005°35'1115.7
2018-Jun-16 12:15N 53°08' W 005°32'514.9
2018-Jun-16 11:56N 53°13' W 005°32'5214.1
2018-Jun-16 08:17N 54°04' W 005°23'715.0
2018-Jun-16 07:50N 54°11' W 005°21'515.2
2018-Jun-16 07:30N 54°16' W 005°21'815.6
2018-Jun-16 07:00N 54°24' W 005°19'815.3
2018-Jun-16 06:30N 54°31' W 005°18'714.7
2018-Jun-16 06:01N 54°39' W 005°18'714.3
2018-Jun-16 05:31N 54°46' W 005°18'713.7
2018-Jun-16 05:00N 54°53' W 005°18'813.6
2018-Jun-16 04:27N 55°00' W 005°16'4415.5
2018-Jun-16 01:35N 55°44' W 004°59'115.2
2018-Jun-16 01:30N 55°45' W 004°59'713.6
2018-Jun-16 01:00N 55°51' W 004°57'713.9
2018-Jun-16 00:30N 55°58' W 004°52'3 0.5
2018-Jun-15 17:31N 55°57' W 004°46'0 0.0
2018-Jun-15 17:01N 55°57' W 004°46'0 0.2
2018-Jun-15 16:58N 55°57' W 004°46'0 0.0
2018-Jun-15 16:28N 55°57' W 004°46'0 0.0
2018-Jun-15 15:58N 55°57' W 004°46'0 0.0
2018-Jun-15 15:28N 55°57' W 004°46'0 0.0
2018-Jun-15 14:55N 55°57' W 004°46'0 0.0
2018-Jun-15 14:25N 55°57' W 004°46'0 0.0
2018-Jun-15 13:58N 55°57' W 004°46'0 0.0
2018-Jun-15 13:28N 55°57' W 004°46'0 0.0
2018-Jun-15 12:55N 55°57' W 004°46'0 0.0
2018-Jun-15 12:25N 55°57' W 004°46'2 0.5
2018-Jun-15 09:08N 55°58' W 004°48'111.6
2018-Jun-15 09:00N 55°58' W 004°51'714.6
2018-Jun-15 08:30N 55°51' W 004°56'715.0
2018-Jun-15 08:00N 55°44' W 004°59'5214.5
2018-Jun-15 04:26N 54°53' W 005°16'818.7
2018-Jun-15 04:00N 54°45' W 005°12'918.8
2018-Jun-15 03:30N 54°36' W 005°08'917.5
2018-Jun-15 03:01N 54°28' W 005°04'1017.2
2018-Jun-15 02:27N 54°18' W 005°00'6315.5
2018-Jun-14 22:21N 53°35' W 003°42'514.6
2018-Jun-14 22:00N 53°34' W 003°34'714.7
2018-Jun-14 21:30N 53°33' W 003°22'510.8
2018-Jun-14 21:00N 53°31' W 003°13'611.2
2018-Jun-14 20:30N 53°29' W 003°05'3 5.7
2018-Jun-14 20:00N 53°27' W 003°01'0 0.0
2018-Jun-14 19:30N 53°27' W 003°01'1 1.2
2018-Jun-14 19:00N 53°28' W 003°02'0 0.0
2018-Jun-14 18:27N 53°28' W 003°02'0 0.0
2018-Jun-14 18:00N 53°28' W 003°02'0 0.0
2018-Jun-14 17:27N 53°28' W 003°02'0 0.0
2018-Jun-14 17:00N 53°28' W 003°02'0 0.0
2018-Jun-14 16:30N 53°28' W 003°02'0 0.0
2018-Jun-14 16:00N 53°28' W 003°02'0 0.0
2018-Jun-14 15:30N 53°28' W 003°02'0 0.0
2018-Jun-14 15:00N 53°28' W 003°02'0 0.0
2018-Jun-14 14:27N 53°28' W 003°02'0 0.0
2018-Jun-14 13:57N 53°28' W 003°02'0 0.0
2018-Jun-14 13:30N 53°28' W 003°02'0 0.0
2018-Jun-14 13:00N 53°28' W 003°02'0 0.0
2018-Jun-14 12:30N 53°28' W 003°02'0 0.0
2018-Jun-14 11:57N 53°28' W 003°02'0 0.0
2018-Jun-14 11:30N 53°28' W 003°02'0 0.0
2018-Jun-14 11:00N 53°28' W 003°02'0 0.0
2018-Jun-14 10:30N 53°28' W 003°02'0 0.0
2018-Jun-14 09:57N 53°28' W 003°02'0 0.0
2018-Jun-14 09:30N 53°28' W 003°02'0 0.0
2018-Jun-14 09:00N 53°28' W 003°02'0 0.0
2018-Jun-14 08:30N 53°28' W 003°02'0 0.0
2018-Jun-14 08:00N 53°28' W 003°02'0 0.0
2018-Jun-14 07:30N 53°28' W 003°02'0 0.0
2018-Jun-14 07:00N 53°28' W 003°02'0 0.0
2018-Jun-14 06:30N 53°28' W 003°02'0 0.0
2018-Jun-14 06:00N 53°28' W 003°02'0 0.0
2018-Jun-14 05:29N 53°28' W 003°02'0 0.0
2018-Jun-14 04:59N 53°28' W 003°02'0 0.0
2018-Jun-14 04:29N 53°28' W 003°02'0 0.0
2018-Jun-14 03:59N 53°28' W 003°02'0 0.0
2018-Jun-14 03:29N 53°28' W 003°02'0 0.0
2018-Jun-14 02:59N 53°28' W 003°02'0 0.0
2018-Jun-14 02:29N 53°28' W 003°02'0 0.0
2018-Jun-14 01:59N 53°28' W 003°02'0 0.0
2018-Jun-14 01:29N 53°28' W 003°02'0 0.0
2018-Jun-14 00:59N 53°28' W 003°02'0 0.4
2018-Jun-14 00:30N 53°28' W 003°01'0 0.9
2018-Jun-14 00:00N 53°27' W 003°01'1 2.9
2018-Jun-13 23:30N 53°28' W 003°03'611.2
2018-Jun-13 23:00N 53°32' W 003°10'612.8
2018-Jun-13 22:30N 53°31' W 003°20'1 1.1
2018-Jun-13 22:00N 53°32' W 003°20'4 7.5
2018-Jun-13 21:30N 53°31' W 003°26'510.9
2018-Jun-13 21:01N 53°31' W 003°35'612.4
2018-Jun-13 20:30N 53°30' W 003°46'713.9
2018-Jun-13 20:00N 53°29' W 003°57'3 4.8
2018-Jun-13 19:18N 53°31' W 003°52'7213.6
2018-Jun-13 14:02N 52°39' W 005°15'114.3
2018-Jun-13 13:57N 52°38' W 005°16'7215.4
2018-Jun-13 09:15N 51°30' W 005°52'3016.9
2018-Jun-13 07:28N 50°59' W 005°53'816.8
2018-Jun-13 07:00N 50°52' W 005°53'1116.7
2018-Jun-13 06:21N 50°40' W 005°53'616.6
2018-Jun-13 05:58N 50°34' W 005°53'716.4
2018-Jun-13 05:30N 50°27' W 005°53'816.6
2018-Jun-13 05:00N 50°18' W 005°54'  

Dump ship's entire track history